Terminal Aerodrome Forecast
Issued by NWS Sterling, VA

Current Version | Previous Version | Text Only | Print | Product List | Glossary Off
Versions: 1 2 3 4 5 6 7 8 9 10 11 12 13 14 15 16 17 18 19 20 21 22 23 24 25

352
FTUS41 KLWX 210537
TAFIAD
TAF
KIAD 210537Z 2106/2212 VRB03KT P6SM SCT050
     FM211600 18005KT 5SM -SHRA OVC050
     FM211900 19008KT P6SM VCTS BKN090CB
     FM212300 17006KT P6SM SCT070
     FM220500 18005KT P6SM BKN150=

USA.gov is the U.S. government's official web portal to all federal, state and local government web resources and services.